createdAt,value
2022-07-28T00:03:58.730Z,2.78
2022-07-28T00:09:01.029Z,2.43
2022-07-28T00:14:03.618Z,2.80
2022-07-28T00:19:06.136Z,2.17
2022-07-28T00:24:08.542Z,2.20
2022-07-28T00:29:10.868Z,2.00
2022-07-28T00:34:13.364Z,2.40
2022-07-28T00:39:15.844Z,2.10
2022-07-28T00:44:18.597Z,2.30
2022-07-28T00:49:20.981Z,2.30
2022-07-28T00:54:23.263Z,2.43
2022-07-28T00:59:26.584Z,2.10
2022-07-28T01:04:29.333Z,2.00
2022-07-28T01:09:38.833Z,2.30
2022-07-28T01:14:52.496Z,2.40
2022-07-28T01:19:54.739Z,2.20
2022-07-28T01:25:07.264Z,2.08
2022-07-28T01:30:27.956Z,2.00
2022-07-28T01:35:32.836Z,2.30
2022-07-28T01:40:36.210Z,2.13
2022-07-28T01:45:39.664Z,2.40
2022-07-28T01:50:42.651Z,2.25
2022-07-28T01:55:45.671Z,2.63
2022-07-28T02:00:49.712Z,2.40
2022-07-28T02:05:53.530Z,2.47
2022-07-28T02:11:15.840Z,2.53
2022-07-28T02:16:21.022Z,7.65
2022-07-28T02:21:25.465Z,2.30
2022-07-28T02:26:32.865Z,2.40
2022-07-28T02:31:44.369Z,2.23
2022-07-28T02:36:51.029Z,2.22
2022-07-28T02:41:58.975Z,1.93
2022-07-28T02:47:04.636Z,2.10
2022-07-28T02:52:08.549Z,2.00
2022-07-28T02:57:12.721Z,1.97
2022-07-28T03:02:15.232Z,2.00
2022-07-28T03:07:18.134Z,2.13
2022-07-28T03:12:20.518Z,1.90
2022-07-28T03:17:22.976Z,1.83
2022-07-28T03:22:25.344Z,1.90
2022-07-28T03:27:28.842Z,1.90
2022-07-28T03:32:32.025Z,1.90
2022-07-28T03:37:44.545Z,2.10
2022-07-28T03:42:47.926Z,1.90
2022-07-28T03:47:54.546Z,2.10
2022-07-28T03:52:57.241Z,2.10
2022-07-28T03:57:59.745Z,2.13
2022-07-28T04:03:02.075Z,2.47
2022-07-28T04:08:04.679Z,2.20
2022-07-28T04:13:07.963Z,2.30
2022-07-28T04:18:10.472Z,2.50
2022-07-28T04:23:12.734Z,1.90
2022-07-28T04:28:15.795Z,1.83
2022-07-28T04:33:19.633Z,2.23
2022-07-28T04:38:22.126Z,2.33
2022-07-28T04:43:24.607Z,2.50
2022-07-28T04:48:27.049Z,2.53
2022-07-28T04:53:30.663Z,3.10
2022-07-28T04:58:32.986Z,2.10
2022-07-28T05:03:36.408Z,2.67
2022-07-28T05:08:38.966Z,2.80
2022-07-28T05:13:41.226Z,2.30
2022-07-28T05:18:43.542Z,2.30
2022-07-28T05:23:47.750Z,2.47
2022-07-28T05:28:50.232Z,2.47
2022-07-28T05:33:52.617Z,2.60
2022-07-28T05:38:54.996Z,2.53
2022-07-28T05:43:58.489Z,2.30
2022-07-28T05:49:00.828Z,2.20
2022-07-28T05:54:03.430Z,2.70
2022-07-28T05:59:09.908Z,2.27
2022-07-28T06:04:27.839Z,1.97
2022-07-28T06:09:30.420Z,2.00
2022-07-28T06:14:32.853Z,2.63
2022-07-28T06:19:35.162Z,2.20
2022-07-28T06:24:37.392Z,2.37
2022-07-28T06:29:39.677Z,2.47
2022-07-28T06:34:43.005Z,2.60
2022-07-28T06:39:45.339Z,2.33
2022-07-28T06:44:58.510Z,2.20
2022-07-28T06:50:02.024Z,2.20
2022-07-28T06:55:05.315Z,2.03
2022-07-28T07:20:18.450Z,2.53
2022-07-28T07:25:20.824Z,2.10
2022-07-28T07:30:23.194Z,1.93
2022-07-28T07:35:25.634Z,2.00
2022-07-28T07:40:28.387Z,1.90
2022-07-28T07:45:30.800Z,1.97
2022-07-28T07:50:33.173Z,2.40
2022-07-28T07:55:37.824Z,2.00
2022-07-28T08:00:40.953Z,1.87
2022-07-28T08:05:43.596Z,1.60
2022-07-28T08:10:45.987Z,1.60
2022-07-28T08:15:48.868Z,2.07
2022-07-28T08:20:51.291Z,2.23
2022-07-28T08:25:53.951Z,1.80
2022-07-28T08:30:56.397Z,1.40
2022-07-28T08:36:00.537Z,2.73
2022-07-28T08:41:04.727Z,1.73
2022-07-28T08:46:07.219Z,1.87
2022-07-28T08:51:11.419Z,1.80
2022-07-28T08:56:15.906Z,1.47
2022-07-28T09:01:18.545Z,1.43
2022-07-28T09:06:22.165Z,1.77
2022-07-28T09:11:28.055Z,1.40
2022-07-28T09:16:30.675Z,1.97
2022-07-28T09:21:33.106Z,1.90
2022-07-28T09:26:35.464Z,2.43
2022-07-28T09:31:55.721Z,2.03
2022-07-28T09:36:59.612Z,2.10
2022-07-28T09:42:02.231Z,2.30
2022-07-28T09:47:21.950Z,2.40
2022-07-28T09:52:37.718Z,1.80
2022-07-28T09:57:41.619Z,2.00
2022-07-28T10:02:51.505Z,1.50
2022-07-28T10:07:54.055Z,1.67
2022-07-28T10:13:04.984Z,1.90
2022-07-28T10:18:07.273Z,2.00
2022-07-28T10:23:11.853Z,1.70
2022-07-28T10:28:16.144Z,2.03
2022-07-28T10:33:19.762Z,1.60
2022-07-28T10:38:22.754Z,2.00
2022-07-28T10:43:26.524Z,1.60
2022-07-28T10:48:28.923Z,1.30
2022-07-28T10:53:38.342Z,1.67
2022-07-28T10:58:50.828Z,1.67
2022-07-28T11:03:53.383Z,1.80
2022-07-28T11:08:56.965Z,1.98
2022-07-28T11:14:30.882Z,1.60
2022-07-28T11:20:00.799Z,1.60
2022-07-28T11:25:19.879Z,1.75
2022-07-28T11:30:36.521Z,1.60
2022-07-28T11:35:38.987Z,1.65
2022-07-28T11:40:42.409Z,1.60
2022-07-28T11:45:50.379Z,1.53
2022-07-28T11:51:04.173Z,1.20
2022-07-28T11:56:08.830Z,1.90
2022-07-28T12:01:18.096Z,1.70
2022-07-28T12:06:26.309Z,1.65
2022-07-28T12:11:32.846Z,1.75
2022-07-28T12:16:37.371Z,1.73
2022-07-28T12:21:46.327Z,1.40
2022-07-28T12:26:50.629Z,1.40
2022-07-28T12:31:54.220Z,1.50
2022-07-28T12:36:58.395Z,1.60
2022-07-28T12:42:05.550Z,1.30
2022-07-28T12:47:09.194Z,1.50
2022-07-28T12:52:21.811Z,1.58
2022-07-28T12:57:44.602Z,1.60
2022-07-28T13:02:51.986Z,1.55
2022-07-28T13:07:58.606Z,1.45
2022-07-28T13:13:03.526Z,1.55
2022-07-28T13:18:05.908Z,1.35
2022-07-28T13:23:08.803Z,1.50
2022-07-28T13:28:27.433Z,1.80
2022-07-28T13:33:29.966Z,1.23
2022-07-28T13:38:33.596Z,1.35
2022-07-28T13:43:36.663Z,1.40
2022-07-28T13:48:57.874Z,1.50
2022-07-28T13:54:02.978Z,1.52
2022-07-28T13:59:07.272Z,1.45
2022-07-28T14:04:16.613Z,1.25
2022-07-28T14:09:21.051Z,1.60
2022-07-28T14:14:25.310Z,1.30
2022-07-28T14:19:38.272Z,1.20
2022-07-28T14:24:42.808Z,1.52
2022-07-28T14:29:45.813Z,1.52
2022-07-28T14:34:48.462Z,1.33
2022-07-28T14:39:51.065Z,1.30
2022-07-28T14:44:53.622Z,1.30
2022-07-28T14:49:57.828Z,1.70
2022-07-28T14:55:05.983Z,1.55
2022-07-28T15:00:09.379Z,1.40
2022-07-28T15:05:11.774Z,1.73
2022-07-28T15:10:14.231Z,1.35
2022-07-28T15:15:16.833Z,1.17
2022-07-28T15:20:19.237Z,1.50
2022-07-28T15:25:21.631Z,1.45
2022-07-28T15:30:24.159Z,1.63
2022-07-28T15:35:26.570Z,1.80
2022-07-28T15:40:29.119Z,1.60
2022-07-28T15:45:32.722Z,1.73
2022-07-28T15:50:35.607Z,1.85
2022-07-28T15:55:38.038Z,1.73
2022-07-28T16:00:40.723Z,1.95
2022-07-28T16:05:48.751Z,1.52
2022-07-28T16:10:54.213Z,1.85
2022-07-28T16:15:57.173Z,1.58
2022-07-28T16:20:59.628Z,1.83
2022-07-28T16:26:02.394Z,1.50
2022-07-28T16:31:04.820Z,1.50
2022-07-28T16:36:07.205Z,1.83
2022-07-28T16:41:11.544Z,1.60
2022-07-28T16:46:20.319Z,1.60
2022-07-28T16:51:22.732Z,2.07
2022-07-28T16:56:25.078Z,1.70
2022-07-28T17:01:27.549Z,1.50
2022-07-28T17:06:30.078Z,1.73
2022-07-28T17:11:32.523Z,1.77
2022-07-28T17:16:35.061Z,1.83
2022-07-28T17:21:37.740Z,1.77
2022-07-28T17:32:02.777Z,1.63
2022-07-28T17:37:05.809Z,2.00
2022-07-28T17:42:08.285Z,1.60
2022-07-28T17:47:10.573Z,1.87
2022-07-28T17:52:13.378Z,1.90
2022-07-28T17:57:18.074Z,1.70
2022-07-28T18:02:21.494Z,1.77
2022-07-28T18:07:24.165Z,1.87
2022-07-28T18:12:26.546Z,1.80
2022-07-28T18:17:30.049Z,1.90
2022-07-28T18:22:32.432Z,1.87
2022-07-28T18:27:35.074Z,1.90
2022-07-28T18:32:37.368Z,2.00
2022-07-28T18:37:45.477Z,2.10
2022-07-28T18:42:48.721Z,1.90
2022-07-28T18:47:51.534Z,2.00
2022-07-28T18:52:54.036Z,2.00
2022-07-28T18:57:57.648Z,1.70
2022-07-28T19:03:00.615Z,1.90
2022-07-28T19:08:03.135Z,2.40
2022-07-28T19:13:05.596Z,2.53
2022-07-28T19:18:14.786Z,2.63
2022-07-28T19:23:19.427Z,2.07
2022-07-28T19:28:22.030Z,2.60
2022-07-28T19:33:25.611Z,2.80
2022-07-28T19:38:28.055Z,2.10
2022-07-28T19:43:31.649Z,2.60
2022-07-28T19:48:34.468Z,1.90
2022-07-28T19:53:37.803Z,2.07
2022-07-28T19:58:40.332Z,2.17
2022-07-28T20:04:00.878Z,2.63
2022-07-28T20:09:05.197Z,3.30
2022-07-28T20:14:08.073Z,4.00
2022-07-28T20:19:10.712Z,3.10
2022-07-28T20:24:13.840Z,2.67
2022-07-28T20:29:16.618Z,2.70
2022-07-28T20:34:19.307Z,3.40
2022-07-28T20:39:43.709Z,2.90
2022-07-28T20:44:44.014Z,3.07
2022-07-28T20:49:46.466Z,3.07
2022-07-28T20:54:53.955Z,3.10
2022-07-28T20:59:57.222Z,2.70
2022-07-28T21:04:59.784Z,2.37
2022-07-28T21:10:02.926Z,2.77
2022-07-28T21:15:06.136Z,2.10
2022-07-28T21:20:08.986Z,2.17
2022-07-28T21:25:11.569Z,2.40
2022-07-28T21:30:14.019Z,2.60
2022-07-28T21:35:16.652Z,2.47
2022-07-28T21:40:19.259Z,2.83
2022-07-28T21:45:21.702Z,2.70
2022-07-28T21:50:24.162Z,2.70
2022-07-28T21:55:26.521Z,2.40
2022-07-28T22:00:29.362Z,2.83
2022-07-28T22:05:31.719Z,2.90
2022-07-28T22:10:34.051Z,3.00
2022-07-28T22:15:36.490Z,3.30
2022-07-28T22:20:39.012Z,2.90
2022-07-28T22:25:41.427Z,2.88
2022-07-28T22:30:43.936Z,2.90
2022-07-28T22:35:46.667Z,3.10
2022-07-28T22:40:49.270Z,2.90
2022-07-28T22:45:51.861Z,2.88
2022-07-28T22:50:54.400Z,2.75
2022-07-28T23:01:16.925Z,2.90
2022-07-28T23:06:20.058Z,2.70
2022-07-28T23:11:22.770Z,2.50
2022-07-28T23:16:25.141Z,2.77
2022-07-28T23:21:28.310Z,2.95
2022-07-28T23:26:30.728Z,2.70
2022-07-28T23:31:33.176Z,3.00
2022-07-28T23:36:35.988Z,2.72
2022-07-28T23:41:38.346Z,3.28
2022-07-28T23:46:40.638Z,3.20
2022-07-28T23:51:48.464Z,3.45
2022-07-28T23:56:51.925Z,2.83
